Farmington, NM (87401)

7:21 PM MST on February 07, 2016 (GMT -0700)
Mojave St & Butler Ave | | Change Station
CLOSE
Current Station
Personal Weather Station
Location: Farmington, NM
Elevation: 5413 ft
Nearby Weather Stations

Elev 5413 ft 36.74 °N, 108.20 °W | Updated 1 minute ago

Clear
Clear
35.8 °F
Feels Like 36 °F
N
0.0
Wind Variable Wind from South

Today
High -- | Low -- °F
--% Chance of Precip.
Yesterday
High -- | Low -- °F
Precip. -- in
Pressure 30.46 in
Visibility 10.0 miles
Clouds Clear
Windchill 36 °F
Dew Point 27 °F
Humidity 70%
Rainfall 0.00 in
Snow Depth Not available.
7:09 AM 5:44 PM
Waning Crescent, 0% visible
METAR KFMN 080153Z 26003KT 10SM CLR 03/M06 A3036 RMK AO2 SLP313 T00331061
Pressure 30.46 in
Visibility 10.0 miles
Clouds Clear
Windchill 36 °F
Dew Point 27 °F
Humidity 70%
Rainfall 0.00 in
Snow Depth Not available.
7:09 AM 5:44 PM
Waning Crescent, 0% visible
METAR KFMN 080153Z 26003KT 10SM CLR 03/M06 A3036 RMK AO2 SLP313 T00331061

10-Day Weather Forecast

Almanac

Astronomy

Feb. 07, 2016 Rise Set
Actual Time
Civil Twilight
Nautical Twilight
Astronomical Twilight
Moon
Length of Visible Light
Length of Day
Tomorrow will be .
, % of the Moon is Illuminated

Today's Extremes

State Highs State Lows

Community

WunderPhotos

Upload Photos

1,891,364 photos uploaded!

WunderBlog® & News

Nearby

Air Quality

  Air Quality AQ Index Pollutant
Not available.

Snow Depth

Station Depth Elevation

Earthquake Activity

City Distance Mag. Time & Date
Minimum magnitude displayed is 2.5.

Coastal Water Temperatures

Place Temperature

Stations

Nearby Weather Stations

Station Location Temp. Windchill Dew Point Humidity Wind Precip. Elev Updated Type
                   

Watches & Warnings

There are currently no watches in effect.